createdAt,value
2022-11-15T00:02:43.976Z,6.80
2022-11-15T00:05:31.129Z,6.95
2022-11-15T00:08:18.503Z,7.30
2022-11-15T00:11:05.647Z,6.38
2022-11-15T00:13:52.722Z,6.50
2022-11-15T00:16:41.042Z,7.13
2022-11-15T00:19:28.241Z,6.50
2022-11-15T00:22:15.505Z,6.10
2022-11-15T00:25:02.598Z,5.90
2022-11-15T00:27:49.507Z,6.00
2022-11-15T00:30:36.834Z,6.18
2022-11-15T00:33:25.270Z,6.07
2022-11-15T00:36:12.651Z,6.20
2022-11-15T00:38:59.664Z,5.55
2022-11-15T00:41:46.968Z,6.50
2022-11-15T00:44:34.084Z,6.53
2022-11-15T00:47:21.478Z,7.10
2022-11-15T00:50:14.829Z,7.13
2022-11-15T00:53:02.508Z,7.22
2022-11-15T00:55:49.695Z,6.35
2022-11-15T00:58:36.901Z,5.82
2022-11-15T01:01:24.276Z,6.30
2022-11-15T01:04:11.454Z,6.00
2022-11-15T01:07:00.210Z,6.10
2022-11-15T01:09:47.337Z,6.25
2022-11-15T01:12:34.622Z,6.25
2022-11-15T01:15:21.897Z,5.72
2022-11-15T01:18:08.875Z,6.25
2022-11-15T01:20:56.043Z,6.45
2022-11-15T01:23:45.816Z,5.95
2022-11-15T01:26:32.748Z,6.55
2022-11-15T01:29:19.821Z,6.65
2022-11-15T01:32:07.149Z,6.28
2022-11-15T01:34:54.521Z,6.68
2022-11-15T01:37:41.597Z,6.15
2022-11-15T01:40:30.400Z,6.72
2022-11-15T01:43:29.412Z,6.63
2022-11-15T01:46:26.123Z,7.40
2022-11-15T01:49:18.201Z,6.85
2022-11-15T01:52:09.276Z,6.90
2022-11-15T01:55:00.577Z,6.13
2022-11-15T01:57:51.834Z,6.60
2022-11-15T02:00:39.160Z,6.60
2022-11-15T02:03:33.628Z,6.47
2022-11-15T02:06:21.383Z,6.43
2022-11-15T02:09:08.449Z,6.47
2022-11-15T02:11:57.709Z,6.40
2022-11-15T02:14:51.739Z,6.63
2022-11-15T02:18:04.544Z,6.75
2022-11-15T02:21:05.070Z,6.40
2022-11-15T02:24:40.729Z,5.90
2022-11-15T02:27:48.451Z,5.80
2022-11-15T02:30:43.723Z,6.10
2022-11-15T02:33:38.489Z,6.15
2022-11-15T02:36:38.315Z,5.70
2022-11-15T02:39:30.288Z,5.80
2022-11-15T02:42:38.872Z,5.78
2022-11-15T02:45:31.705Z,5.32
2022-11-15T02:48:21.067Z,5.80
2022-11-15T02:51:08.707Z,5.68
2022-11-15T02:53:55.678Z,5.53
2022-11-15T02:56:45.121Z,5.50
2022-11-15T03:00:09.187Z,5.60
2022-11-15T03:03:09.548Z,5.93
2022-11-15T03:06:06.244Z,5.53
2022-11-15T03:09:04.114Z,5.40
2022-11-15T03:11:56.745Z,5.68
2022-11-15T03:14:53.450Z,5.10
2022-11-15T03:17:44.652Z,5.43
2022-11-15T03:20:33.396Z,5.70
2022-11-15T03:23:22.828Z,5.90
2022-11-15T03:26:14.109Z,6.38
2022-11-15T03:29:05.419Z,6.32
2022-11-15T03:31:59.356Z,6.13
2022-11-15T03:34:52.033Z,5.65
2022-11-15T03:37:57.570Z,5.95
2022-11-15T03:40:51.323Z,5.78
2022-11-15T03:43:45.371Z,6.03
2022-11-15T03:46:36.086Z,6.15
2022-11-15T03:49:29.334Z,6.00
2022-11-15T03:52:20.588Z,6.45
2022-11-15T03:55:10.898Z,6.38
2022-11-15T03:58:01.557Z,6.40
2022-11-15T04:00:51.581Z,5.93
2022-11-15T04:03:38.593Z,6.18
2022-11-15T04:06:25.534Z,6.13
2022-11-15T04:09:12.956Z,6.22
2022-11-15T04:11:59.992Z,5.45
2022-11-15T04:15:07.994Z,5.63
2022-11-15T04:17:56.666Z,5.25
2022-11-15T04:21:01.244Z,5.80
2022-11-15T04:24:05.994Z,4.95
2022-11-15T04:26:53.108Z,4.65
2022-11-15T04:29:40.491Z,4.90
2022-11-15T04:32:28.917Z,5.03
2022-11-15T04:35:15.922Z,4.60
2022-11-15T04:38:07.079Z,4.75
2022-11-15T04:40:54.514Z,5.10
2022-11-15T04:43:41.423Z,4.60
2022-11-15T04:46:28.986Z,4.78
2022-11-15T04:49:17.561Z,4.53
2022-11-15T04:52:05.201Z,4.82
2022-11-15T04:54:52.306Z,4.07
2022-11-15T04:57:39.738Z,4.30
2022-11-15T05:00:26.769Z,4.32
2022-11-15T05:03:31.855Z,4.78
2022-11-15T05:06:20.612Z,4.85
2022-11-15T05:09:07.865Z,4.97
2022-11-15T05:11:55.034Z,5.03
2022-11-15T05:14:42.127Z,4.65
2022-11-15T05:17:29.271Z,4.28
2022-11-15T05:20:16.753Z,3.75
2022-11-15T05:23:05.357Z,2.90
2022-11-15T05:25:52.167Z,2.70
2022-11-15T05:28:41.910Z,2.72
2022-11-15T05:31:29.697Z,2.28
2022-11-15T05:34:18.217Z,2.10
2022-11-15T05:37:05.702Z,2.20
2022-11-15T05:39:54.045Z,2.10
2022-11-15T05:42:41.299Z,1.95
2022-11-15T05:45:28.997Z,1.67
2022-11-15T05:48:16.811Z,2.00
2022-11-15T05:51:05.883Z,2.50
2022-11-15T05:53:54.460Z,2.70
2022-11-15T05:56:43.048Z,1.80
2022-11-15T05:59:32.213Z,2.00
2022-11-15T06:02:19.272Z,1.77
2022-11-15T06:05:06.749Z,2.13
2022-11-15T06:07:53.972Z,1.80
2022-11-15T06:10:41.204Z,2.20
2022-11-15T06:13:30.007Z,2.15
2022-11-15T06:16:17.287Z,2.63
2022-11-15T06:19:04.586Z,3.13
2022-11-15T06:21:53.384Z,2.83
2022-11-15T06:24:40.631Z,3.00
2022-11-15T06:27:27.835Z,3.08
2022-11-15T06:30:16.788Z,2.75
2022-11-15T06:33:05.663Z,3.20
2022-11-15T06:35:52.748Z,2.88
2022-11-15T06:38:40.016Z,3.30
2022-11-15T06:41:27.153Z,3.25
2022-11-15T06:44:14.386Z,3.45
2022-11-15T06:47:02.860Z,2.95
2022-11-15T06:49:49.743Z,3.00
2022-11-15T06:52:37.067Z,3.20
2022-11-15T06:55:24.254Z,2.85
2022-11-15T06:58:11.460Z,3.15
2022-11-15T07:01:02.193Z,2.40
2022-11-15T07:03:50.463Z,2.70
2022-11-15T07:06:37.318Z,2.60
2022-11-15T07:09:24.432Z,2.85
2022-11-15T07:12:11.663Z,3.10
2022-11-15T07:14:59.007Z,3.22
2022-11-15T07:17:46.196Z,2.83
2022-11-15T07:20:34.858Z,2.97
2022-11-15T07:23:22.138Z,2.88
2022-11-15T07:26:09.826Z,2.40
2022-11-15T07:28:57.071Z,2.72
2022-11-15T07:31:44.482Z,2.60
2022-11-15T07:34:31.586Z,2.15
2022-11-15T07:37:20.470Z,2.10
2022-11-15T07:40:09.493Z,2.20
2022-11-15T07:43:01.435Z,1.83
2022-11-15T07:45:48.407Z,2.05
2022-11-15T07:48:43.840Z,1.92
2022-11-15T07:51:31.523Z,1.83
2022-11-15T07:54:19.878Z,1.90
2022-11-15T07:57:08.131Z,1.63
2022-11-15T07:59:55.652Z,1.52
2022-11-15T08:02:42.846Z,1.60
2022-11-15T08:05:29.751Z,1.77
2022-11-15T08:08:16.828Z,1.90
2022-11-15T08:11:05.859Z,1.63
2022-11-15T08:13:53.233Z,1.73
2022-11-15T08:16:40.541Z,2.03
2022-11-15T08:19:28.017Z,1.80
2022-11-15T08:22:15.037Z,1.42
2022-11-15T08:25:02.731Z,1.70
2022-11-15T08:27:53.542Z,1.42
2022-11-15T08:30:43.076Z,1.65
2022-11-15T08:33:30.993Z,1.23
2022-11-15T08:36:19.397Z,1.30
2022-11-15T08:39:07.031Z,1.60
2022-11-15T08:41:54.124Z,1.30
2022-11-15T08:44:43.014Z,1.30
2022-11-15T08:47:29.961Z,1.02
2022-11-15T08:50:17.745Z,1.13
2022-11-15T08:53:07.922Z,1.10
2022-11-15T08:55:54.608Z,0.98
2022-11-15T08:58:43.431Z,0.95
2022-11-15T09:01:31.928Z,0.90
2022-11-15T09:04:19.058Z,0.90
2022-11-15T09:07:06.377Z,0.85
2022-11-15T09:09:53.390Z,0.77
2022-11-15T09:12:40.726Z,1.35
2022-11-15T09:15:27.792Z,1.08
2022-11-15T09:18:16.406Z,0.90
2022-11-15T09:21:04.541Z,0.60
2022-11-15T09:23:53.100Z,0.73
2022-11-15T09:26:40.405Z,0.80
2022-11-15T09:29:40.054Z,0.70
2022-11-15T09:32:35.042Z,0.70
2022-11-15T09:35:27.550Z,0.60
2022-11-15T09:38:14.792Z,0.73
2022-11-15T09:41:24.624Z,0.82
2022-11-15T09:44:31.482Z,0.93
2022-11-15T09:47:39.465Z,0.80
2022-11-15T09:50:36.400Z,0.70
2022-11-15T09:53:05.369Z,0.90
2022-11-15T09:55:39.653Z,0.60
2022-11-15T09:58:29.255Z,0.70
2022-11-15T10:01:02.212Z,0.70
2022-11-15T10:03:35.513Z,0.70
2022-11-15T10:06:08.232Z,0.90
2022-11-15T10:08:52.014Z,0.68
2022-11-15T10:11:40.072Z,0.50
2022-11-15T10:14:14.364Z,0.60
2022-11-15T10:17:22.277Z,0.68
2022-11-15T10:20:05.708Z,0.90
2022-11-15T10:22:41.867Z,1.15
2022-11-15T10:25:19.769Z,0.60
2022-11-15T10:27:55.522Z,0.70
2022-11-15T10:30:24.950Z,0.80
2022-11-15T10:32:53.531Z,0.52
2022-11-15T10:35:26.808Z,0.63
2022-11-15T10:38:07.895Z,0.93
2022-11-15T10:40:37.373Z,0.60
2022-11-15T10:43:17.577Z,0.70
2022-11-15T10:45:47.137Z,0.70
2022-11-15T10:48:27.278Z,0.60
2022-11-15T10:50:57.805Z,0.80
2022-11-15T10:53:32.680Z,0.70
2022-11-15T10:56:05.689Z,0.70
2022-11-15T10:58:37.845Z,0.93
2022-11-15T11:01:18.618Z,0.50
2022-11-15T11:03:59.247Z,0.80
2022-11-15T11:06:27.973Z,0.80
2022-11-15T11:09:00.187Z,0.50
2022-11-15T11:11:49.703Z,0.88
2022-11-15T11:14:24.308Z,0.70
2022-11-15T11:16:57.167Z,0.90
2022-11-15T11:19:36.916Z,0.70
2022-11-15T11:22:14.038Z,0.93
2022-11-15T11:24:49.893Z,0.80
2022-11-15T11:27:35.537Z,0.60
2022-11-15T11:30:19.572Z,0.63
2022-11-15T11:33:02.703Z,0.63
2022-11-15T11:35:36.260Z,0.60
2022-11-15T11:38:21.341Z,0.98
2022-11-15T11:41:03.866Z,0.77
2022-11-15T11:43:43.493Z,0.90
2022-11-15T11:46:40.041Z,0.93
2022-11-15T11:49:12.442Z,0.75
2022-11-15T11:51:44.329Z,0.85
2022-11-15T11:54:17.357Z,1.38
2022-11-15T11:56:47.566Z,1.00
2022-11-15T11:59:25.332Z,0.80
2022-11-15T12:01:54.068Z,0.77
2022-11-15T12:04:31.184Z,0.77
2022-11-15T12:07:03.472Z,0.93
2022-11-15T12:09:35.757Z,1.00
2022-11-15T12:12:11.226Z,1.00
2022-11-15T12:14:47.687Z,0.98
2022-11-15T12:17:19.675Z,0.90
2022-11-15T12:19:49.807Z,0.90
2022-11-15T12:22:23.604Z,0.98
2022-11-15T12:24:57.259Z,1.13
2022-11-15T12:27:35.585Z,1.55
2022-11-15T12:30:11.314Z,0.90
2022-11-15T12:32:50.903Z,1.02
2022-11-15T12:35:28.919Z,1.10
2022-11-15T12:37:57.795Z,1.23
2022-11-15T12:40:28.449Z,1.60
2022-11-15T12:43:07.355Z,1.15
2022-11-15T12:45:37.729Z,1.27
2022-11-15T12:48:39.561Z,1.30
2022-11-15T12:51:08.128Z,1.55
2022-11-15T12:53:37.314Z,1.80
2022-11-15T12:56:23.840Z,1.52
2022-11-15T12:58:57.370Z,1.90
2022-11-15T13:01:59.428Z,1.90
2022-11-15T13:04:31.047Z,1.58
2022-11-15T13:07:03.983Z,2.00
2022-11-15T13:10:00.221Z,1.90
2022-11-15T13:12:58.327Z,2.08
2022-11-15T13:15:41.301Z,2.22
2022-11-15T13:18:36.593Z,2.20
2022-11-15T13:21:37.280Z,1.98
2022-11-15T13:24:06.515Z,1.98
2022-11-15T13:26:35.670Z,2.05
2022-11-15T13:29:04.324Z,2.10
2022-11-15T13:31:38.739Z,1.83
2022-11-15T13:34:50.095Z,2.25
2022-11-15T13:37:29.650Z,2.10
2022-11-15T13:40:17.810Z,2.10
2022-11-15T13:42:46.604Z,2.17
2022-11-15T13:45:17.621Z,1.95
2022-11-15T13:47:53.891Z,2.17
2022-11-15T13:50:24.839Z,2.10
2022-11-15T13:52:54.319Z,1.92
2022-11-15T13:55:24.532Z,2.33
2022-11-15T13:58:00.211Z,2.30
2022-11-15T14:00:36.408Z,2.05
2022-11-15T14:03:17.895Z,2.15
2022-11-15T14:05:48.656Z,2.30
2022-11-15T14:08:24.756Z,2.10
2022-11-15T14:11:13.927Z,2.25
2022-11-15T14:13:42.933Z,1.88
2022-11-15T14:16:19.914Z,2.17
2022-11-15T14:18:51.754Z,2.20
2022-11-15T14:21:21.465Z,2.42
2022-11-15T14:23:51.608Z,2.60
2022-11-15T14:26:31.388Z,2.05
2022-11-15T14:29:23.089Z,2.17
2022-11-15T14:31:51.846Z,2.00
2022-11-15T14:34:23.104Z,2.38
2022-11-15T14:36:51.673Z,1.95
2022-11-15T14:39:20.216Z,1.98
2022-11-15T14:41:48.848Z,1.58
2022-11-15T14:44:19.525Z,1.67
2022-11-15T14:46:49.092Z,1.60
2022-11-15T14:49:17.796Z,1.60
2022-11-15T14:51:47.735Z,1.50
2022-11-15T14:54:16.287Z,1.40
2022-11-15T14:56:44.813Z,1.63
2022-11-15T14:59:13.478Z,1.70
2022-11-15T15:01:42.094Z,1.52
2022-11-15T15:04:12.476Z,1.95
2022-11-15T15:06:41.044Z,1.70
2022-11-15T15:09:11.045Z,2.13
2022-11-15T15:11:39.645Z,1.90
2022-11-15T15:14:08.119Z,1.55
2022-11-15T15:16:36.625Z,1.50
2022-11-15T15:19:05.167Z,1.60
2022-11-15T15:21:37.227Z,1.85
2022-11-15T15:24:06.569Z,1.73
2022-11-15T15:26:37.551Z,2.20
2022-11-15T15:29:06.309Z,2.00
2022-11-15T15:31:34.876Z,1.65
2022-11-15T15:34:03.746Z,2.00
2022-11-15T15:36:32.475Z,1.75
2022-11-15T15:39:00.997Z,1.95
2022-11-15T15:41:29.927Z,1.75
2022-11-15T15:43:59.867Z,1.70
2022-11-15T15:46:28.416Z,1.52
2022-11-15T15:48:56.981Z,1.80
2022-11-15T15:51:25.523Z,1.85
2022-11-15T15:53:58.049Z,1.70
2022-11-15T15:56:26.784Z,1.70
2022-11-15T15:58:56.392Z,1.50
2022-11-15T16:01:26.844Z,1.85
2022-11-15T16:03:55.408Z,2.10
2022-11-15T16:06:39.176Z,2.13
2022-11-15T16:09:15.341Z,1.60
2022-11-15T16:11:46.492Z,1.77
2022-11-15T16:14:15.364Z,1.80
2022-11-15T16:16:45.215Z,1.85
2022-11-15T16:19:14.131Z,1.60
2022-11-15T16:21:42.741Z,1.50
2022-11-15T16:24:13.773Z,1.90
2022-11-15T16:26:42.625Z,1.63
2022-11-15T16:29:11.876Z,2.00
2022-11-15T16:31:40.584Z,1.77
2022-11-15T16:34:10.635Z,2.22
2022-11-15T16:36:39.248Z,1.90
2022-11-15T16:39:07.789Z,2.38
2022-11-15T16:41:36.452Z,1.83
2022-11-15T16:44:05.023Z,1.92
2022-11-15T16:46:33.619Z,2.25
2022-11-15T16:49:02.143Z,2.22
2022-11-15T16:51:32.314Z,2.10
2022-11-15T16:54:00.814Z,2.53
2022-11-15T16:56:31.033Z,2.25
2022-11-15T16:59:01.354Z,2.25
2022-11-15T17:01:32.606Z,2.28
2022-11-15T17:04:12.499Z,2.47
2022-11-15T17:06:44.525Z,2.53
2022-11-15T17:09:15.963Z,2.70
2022-11-15T17:11:45.316Z,2.40
2022-11-15T17:14:15.168Z,2.63
2022-11-15T17:16:44.447Z,2.30
2022-11-15T17:19:15.276Z,2.58
2022-11-15T17:21:49.442Z,2.80
2022-11-15T17:24:20.937Z,2.63
2022-11-15T17:26:49.588Z,2.92
2022-11-15T17:29:19.065Z,2.40
2022-11-15T17:31:47.869Z,2.63
2022-11-15T17:34:18.224Z,2.42
2022-11-15T17:36:48.588Z,2.58
2022-11-15T17:39:18.701Z,2.78
2022-11-15T17:41:47.397Z,2.42
2022-11-15T17:44:15.964Z,2.80
2022-11-15T17:46:45.246Z,2.72
2022-11-15T17:49:13.739Z,3.10
2022-11-15T17:51:45.094Z,3.17
2022-11-15T17:54:18.665Z,3.13
2022-11-15T17:56:47.279Z,3.28
2022-11-15T17:59:20.096Z,2.95
2022-11-15T18:01:50.078Z,3.25
2022-11-15T18:04:18.612Z,3.00
2022-11-15T18:06:47.378Z,3.55
2022-11-15T18:09:15.987Z,3.33
2022-11-15T18:11:50.581Z,2.95
2022-11-15T18:14:20.220Z,3.05
2022-11-15T18:16:48.807Z,3.47
2022-11-15T18:19:19.910Z,3.60
2022-11-15T18:21:57.963Z,3.38
2022-11-15T18:24:28.700Z,3.20
2022-11-15T18:26:59.126Z,3.22
2022-11-15T18:29:27.939Z,3.75
2022-11-15T18:31:56.893Z,3.92
2022-11-15T18:34:28.763Z,3.42
2022-11-15T18:36:57.246Z,3.10
2022-11-15T18:39:25.816Z,3.50
2022-11-15T18:41:54.422Z,3.30
2022-11-15T18:44:24.272Z,2.90
2022-11-15T18:46:52.926Z,3.75
2022-11-15T18:49:21.522Z,3.55
2022-11-15T18:51:50.372Z,3.65
2022-11-15T18:54:19.060Z,3.63
2022-11-15T18:56:47.848Z,3.95
2022-11-15T18:59:16.731Z,4.10
2022-11-15T19:01:48.347Z,3.95
2022-11-15T19:04:19.037Z,3.75
2022-11-15T19:06:49.172Z,3.45
2022-11-15T19:09:19.562Z,3.63
2022-11-15T19:11:51.386Z,3.53
2022-11-15T19:14:23.989Z,3.60
2022-11-15T19:16:54.998Z,3.67
2022-11-15T19:19:25.018Z,3.90
2022-11-15T19:21:54.397Z,3.40
2022-11-15T19:24:22.863Z,4.00
2022-11-15T19:26:51.520Z,3.60
2022-11-15T19:29:20.072Z,3.60
2022-11-15T19:31:49.035Z,3.65
2022-11-15T19:34:18.927Z,3.67
2022-11-15T19:36:47.762Z,4.18
2022-11-15T19:39:18.422Z,4.20
2022-11-15T19:41:47.800Z,4.07
2022-11-15T19:44:16.384Z,3.50
2022-11-15T19:46:45.299Z,3.83
2022-11-15T19:49:13.928Z,3.80
2022-11-15T19:51:45.149Z,3.45
2022-11-15T19:54:13.745Z,3.78
2022-11-15T19:56:42.407Z,3.60
2022-11-15T19:59:13.461Z,4.00
2022-11-15T20:01:42.602Z,3.70
2022-11-15T20:04:11.330Z,3.10
2022-11-15T20:06:41.629Z,3.25
2022-11-15T20:09:13.756Z,3.60
2022-11-15T20:11:43.135Z,3.63
2022-11-15T20:14:13.148Z,3.58
2022-11-15T20:16:42.242Z,3.55
2022-11-15T20:19:12.363Z,3.30
2022-11-15T20:21:41.184Z,4.10
2022-11-15T20:24:11.281Z,3.72
2022-11-15T20:26:39.982Z,3.47
2022-11-15T20:29:11.152Z,3.83
2022-11-15T20:31:39.626Z,3.70
2022-11-15T20:34:08.208Z,3.53
2022-11-15T20:36:36.754Z,3.45
2022-11-15T20:39:05.604Z,3.47
2022-11-15T20:41:35.497Z,3.30
2022-11-15T20:44:04.239Z,3.65
2022-11-15T20:46:32.765Z,3.50
2022-11-15T20:49:01.409Z,4.00
2022-11-15T20:51:29.907Z,3.30
2022-11-15T20:53:58.724Z,3.60
2022-11-15T20:56:27.349Z,3.38
2022-11-15T20:58:57.448Z,3.70
2022-11-15T21:01:26.374Z,3.67
2022-11-15T21:03:56.018Z,3.95
2022-11-15T21:06:25.702Z,3.70
2022-11-15T21:09:12.805Z,3.38
2022-11-15T21:12:13.560Z,3.90
2022-11-15T21:14:45.108Z,3.17
2022-11-15T21:17:14.035Z,3.40
2022-11-15T21:19:42.694Z,3.75
2022-11-15T21:22:14.461Z,3.55
2022-11-15T21:24:43.402Z,3.40
2022-11-15T21:27:11.907Z,4.80
2022-11-15T21:29:40.523Z,4.15
2022-11-15T21:32:16.705Z,3.95
2022-11-15T21:34:54.327Z,3.22
2022-11-15T21:37:26.971Z,3.70
2022-11-15T21:39:57.018Z,3.50
2022-11-15T21:42:28.513Z,3.53
2022-11-15T21:45:04.952Z,4.05
2022-11-15T21:47:34.803Z,3.60
2022-11-15T21:50:06.434Z,3.70
2022-11-15T21:52:34.916Z,3.50
2022-11-15T21:55:14.708Z,3.33
2022-11-15T21:57:43.210Z,3.40
2022-11-15T22:00:30.593Z,3.28
2022-11-15T22:03:00.425Z,3.30
2022-11-15T22:05:29.023Z,3.50
2022-11-15T22:07:57.473Z,3.20
2022-11-15T22:10:25.988Z,3.47
2022-11-15T22:12:54.487Z,3.38
2022-11-15T22:15:22.955Z,3.20
2022-11-15T22:18:00.580Z,3.40
2022-11-15T22:20:44.619Z,3.67
2022-11-15T22:23:13.939Z,3.58
2022-11-15T22:26:01.909Z,3.70
2022-11-15T22:28:39.979Z,3.63
2022-11-15T22:31:09.254Z,3.63
2022-11-15T22:33:38.204Z,3.60
2022-11-15T22:36:09.774Z,3.47
2022-11-15T22:38:38.502Z,4.32
2022-11-15T22:41:07.371Z,3.90
2022-11-15T22:43:36.147Z,4.50
2022-11-15T22:46:05.738Z,4.63
2022-11-15T22:48:37.299Z,4.30
2022-11-15T22:51:09.132Z,3.95
2022-11-15T22:53:38.519Z,3.75
2022-11-15T22:56:08.001Z,3.80
2022-11-15T22:58:37.040Z,3.78
2022-11-15T23:01:07.518Z,3.75
2022-11-15T23:03:36.297Z,3.80
2022-11-15T23:06:07.391Z,4.28
2022-11-15T23:08:38.506Z,4.57
2022-11-15T23:11:24.901Z,4.47
2022-11-15T23:13:54.968Z,4.63
2022-11-15T23:16:26.092Z,4.32
2022-11-15T23:18:57.990Z,5.03
2022-11-15T23:21:46.318Z,4.85
2022-11-15T23:24:17.340Z,5.05
2022-11-15T23:26:48.249Z,4.88
2022-11-15T23:29:19.324Z,4.75
2022-11-15T23:32:11.358Z,5.28
2022-11-15T23:34:41.914Z,5.35
2022-11-15T23:37:12.886Z,5.45
2022-11-15T23:39:44.393Z,5.70
2022-11-15T23:42:19.474Z,5.00
2022-11-15T23:44:50.835Z,5.28
2022-11-15T23:47:19.993Z,5.72
2022-11-15T23:49:48.876Z,5.65
2022-11-15T23:52:18.067Z,5.53
2022-11-15T23:54:48.144Z,5.55
2022-11-15T23:57:16.968Z,5.63
2022-11-15T23:59:48.712Z,5.50
